createdAt,value
2018-05-10T00:00:13.883Z,33.20
2018-05-10T00:02:41.506Z,30.77
2018-05-10T00:05:09.223Z,28.40
2018-05-10T00:07:36.820Z,29.33
2018-05-10T00:10:04.599Z,31.93
2018-05-10T00:12:32.198Z,29.07
2018-05-10T00:14:59.848Z,29.93
2018-05-10T00:17:27.442Z,29.30
2018-05-10T00:19:55.121Z,27.77
2018-05-10T00:22:22.843Z,30.20
2018-05-10T00:24:50.419Z,29.27
2018-05-10T00:27:18.048Z,29.13
2018-05-10T00:29:45.666Z,30.23
2018-05-10T00:32:13.358Z,28.43
2018-05-10T00:34:40.972Z,28.50
2018-05-10T00:37:08.622Z,32.27
2018-05-10T00:39:36.250Z,30.50
2018-05-10T00:42:04.003Z,30.87
2018-05-10T00:44:31.617Z,30.73
2018-05-10T00:46:59.313Z,29.03
2018-05-10T00:49:26.909Z,30.87
2018-05-10T00:51:54.673Z,33.93
2018-05-10T00:54:33.899Z,35.80
2018-05-10T00:57:01.604Z,33.10
2018-05-10T00:59:29.244Z,32.53
2018-05-10T01:01:56.897Z,32.70
2018-05-10T01:04:24.508Z,32.87
2018-05-10T01:06:52.169Z,34.90
2018-05-10T01:09:19.812Z,31.67
2018-05-10T01:11:47.536Z,30.97
2018-05-10T01:14:15.185Z,31.73
2018-05-10T01:16:42.803Z,31.17
2018-05-10T01:19:10.485Z,30.07
2018-05-10T01:21:38.089Z,28.97
2018-05-10T01:24:05.744Z,27.53
2018-05-10T01:26:33.374Z,26.10
2018-05-10T01:29:01.025Z,24.20
2018-05-10T01:31:28.637Z,22.87
2018-05-10T01:33:56.298Z,21.63
2018-05-10T01:36:23.906Z,20.73
2018-05-10T01:38:51.558Z,20.70
2018-05-10T01:41:19.203Z,25.27
2018-05-10T01:43:46.889Z,23.17
2018-05-10T01:46:14.486Z,23.60
2018-05-10T01:48:42.125Z,25.43
2018-05-10T01:51:09.723Z,23.10
2018-05-10T01:53:37.364Z,22.10
2018-05-10T01:56:05.022Z,22.77
2018-05-10T01:58:32.762Z,23.00
2018-05-10T02:01:00.394Z,23.20
2018-05-10T02:03:28.063Z,25.20
2018-05-10T02:05:55.711Z,30.03
2018-05-10T02:08:23.367Z,28.43
2018-05-10T02:10:51.088Z,29.77
2018-05-10T02:13:18.785Z,30.87
2018-05-10T02:15:46.509Z,32.80
2018-05-10T02:18:14.119Z,29.97
2018-05-10T02:20:41.802Z,30.93
2018-05-10T02:23:10.537Z,29.73
2018-05-10T02:25:39.211Z,30.23
2018-05-10T02:28:08.090Z,28.93
2018-05-10T02:30:35.821Z,27.20
2018-05-10T02:33:03.723Z,27.20
2018-05-10T02:35:31.514Z,25.53
2018-05-10T02:37:59.428Z,24.50
2018-05-10T02:40:27.085Z,23.10
2018-05-10T02:42:54.712Z,22.17
2018-05-10T02:45:22.407Z,25.30
2018-05-10T02:47:50.080Z,22.40
2018-05-10T02:50:17.734Z,23.43
2018-05-10T02:52:45.362Z,25.30
2018-05-10T02:55:13.226Z,24.00
2018-05-10T02:57:40.992Z,21.40
2018-05-10T03:00:08.609Z,20.60
2018-05-10T03:02:36.256Z,21.20
2018-05-10T03:05:03.861Z,21.23
2018-05-10T03:07:31.506Z,18.97
2018-05-10T03:09:59.117Z,18.80
2018-05-10T03:12:26.811Z,18.10
2018-05-10T03:14:54.446Z,18.80
2018-05-10T03:17:22.100Z,17.83
2018-05-10T03:19:49.710Z,19.00
2018-05-10T03:22:17.416Z,19.50
2018-05-10T03:24:45.031Z,18.30
2018-05-10T03:27:12.844Z,19.97
2018-05-10T03:29:40.453Z,20.17
2018-05-10T03:32:08.125Z,23.17
2018-05-10T03:34:35.725Z,24.40
2018-05-10T03:37:03.389Z,24.40
2018-05-10T03:39:31.109Z,25.03
2018-05-10T03:41:58.782Z,26.90
2018-05-10T03:44:26.432Z,26.07
2018-05-10T03:46:54.105Z,25.67
2018-05-10T03:49:21.711Z,24.63
2018-05-10T03:51:49.546Z,27.90
2018-05-10T03:54:17.184Z,26.87
2018-05-10T03:56:44.871Z,27.03
2018-05-10T03:59:12.594Z,28.40
2018-05-10T04:01:40.221Z,27.80
2018-05-10T04:07:23.001Z,25.43
2018-05-10T04:12:49.868Z,28.33
2018-05-10T04:15:17.476Z,28.33
2018-05-10T04:17:45.097Z,28.07
2018-05-10T04:20:12.805Z,27.73
2018-05-10T04:22:40.416Z,27.00
2018-05-10T04:25:08.076Z,27.03
2018-05-10T04:27:35.740Z,26.70
2018-05-10T04:30:03.463Z,26.90
2018-05-10T04:32:31.005Z,27.03
2018-05-10T04:34:58.746Z,25.80
2018-05-10T04:37:26.377Z,24.87
2018-05-10T04:39:54.031Z,25.17
2018-05-10T04:42:21.776Z,26.20
2018-05-10T04:44:49.285Z,25.00
2018-05-10T04:47:16.912Z,25.77
2018-05-10T04:49:44.832Z,24.90
2018-05-10T04:52:12.432Z,24.23
2018-05-10T04:54:40.077Z,25.50
2018-05-10T04:57:07.762Z,25.30
2018-05-10T04:59:35.433Z,22.50
2018-05-10T05:02:06.765Z,23.77
2018-05-10T05:04:34.414Z,24.87
2018-05-10T05:07:05.649Z,21.40
2018-05-10T05:09:33.510Z,21.77
2018-05-10T05:12:01.362Z,17.90
2018-05-10T05:14:29.092Z,19.33
2018-05-10T05:16:56.766Z,18.37
2018-05-10T05:19:24.528Z,21.60
2018-05-10T05:21:52.216Z,18.50
2018-05-10T05:24:19.890Z,17.67
2018-05-10T05:26:47.838Z,17.23
2018-05-10T05:29:15.473Z,15.30
2018-05-10T05:31:43.119Z,15.43
2018-05-10T05:34:10.873Z,15.47
2018-05-10T05:36:38.578Z,15.97
2018-05-10T05:39:06.190Z,14.50
2018-05-10T05:41:33.910Z,14.73
2018-05-10T05:44:02.368Z,14.63
2018-05-10T05:46:30.543Z,18.30
2018-05-10T05:48:58.428Z,15.50
2018-05-10T05:51:26.150Z,13.20
2018-05-10T05:53:53.853Z,16.90
2018-05-10T05:56:21.474Z,15.70
2018-05-10T05:58:49.448Z,19.70
2018-05-10T06:01:19.154Z,19.77
2018-05-10T06:03:47.121Z,16.93
2018-05-10T06:06:14.856Z,19.53
2018-05-10T06:08:42.938Z,17.80
2018-05-10T06:11:10.681Z,20.03
2018-05-10T06:13:38.418Z,18.60
2018-05-10T06:16:06.057Z,18.83
2018-05-10T06:18:33.703Z,21.90
2018-05-10T06:21:01.330Z,20.90
2018-05-10T06:23:29.249Z,19.60
2018-05-10T06:25:56.982Z,21.60
2018-05-10T06:28:24.695Z,20.27
2018-05-10T06:30:52.373Z,22.83
2018-05-10T06:33:19.986Z,21.83
2018-05-10T06:35:47.745Z,22.33
2018-05-10T06:38:15.521Z,25.60
2018-05-10T06:40:43.326Z,24.40
2018-05-10T06:43:11.002Z,22.47
2018-05-10T06:45:38.695Z,23.63
2018-05-10T06:48:06.433Z,22.80
2018-05-10T06:50:34.243Z,20.77
2018-05-10T06:53:02.999Z,25.10
2018-05-10T06:55:30.722Z,20.17
2018-05-10T06:57:58.467Z,22.07
2018-05-10T07:00:26.174Z,23.73
2018-05-10T07:02:54.476Z,24.80
2018-05-10T07:05:22.257Z,24.53
2018-05-10T07:07:49.886Z,23.20
2018-05-10T07:10:17.576Z,22.80
2018-05-10T07:12:45.245Z,24.90
2018-05-10T07:15:12.912Z,25.87
2018-05-10T07:17:40.590Z,25.70
2018-05-10T07:20:08.166Z,27.83
2018-05-10T07:22:35.874Z,26.83
2018-05-10T07:25:03.783Z,25.40
2018-05-10T07:27:31.528Z,29.07
2018-05-10T07:29:59.226Z,24.57
2018-05-10T07:32:26.866Z,23.73
2018-05-10T07:34:54.517Z,23.17
2018-05-10T07:37:22.482Z,24.03
2018-05-10T07:39:50.229Z,23.13
2018-05-10T07:42:17.925Z,21.57
2018-05-10T07:44:45.567Z,22.30
2018-05-10T07:47:13.334Z,21.07
2018-05-10T07:49:40.944Z,20.77
2018-05-10T07:52:08.643Z,20.07
2018-05-10T07:54:36.314Z,18.77
2018-05-10T07:57:04.127Z,18.33
2018-05-10T07:59:31.795Z,17.00
2018-05-10T08:01:59.455Z,19.37
2018-05-10T08:04:27.319Z,19.10
2018-05-10T08:06:55.029Z,18.47
2018-05-10T08:09:23.597Z,19.90
2018-05-10T08:11:51.382Z,24.37
2018-05-10T08:14:19.213Z,29.03
2018-05-10T08:16:46.832Z,20.73
2018-05-10T08:19:14.722Z,15.60
2018-05-10T08:21:42.351Z,10.30
2018-05-10T08:24:10.282Z,12.47
2018-05-10T08:26:38.002Z,11.43
2018-05-10T08:29:06.079Z,11.67
2018-05-10T08:31:34.042Z,9.93
2018-05-10T08:34:01.730Z,9.37
2018-05-10T08:36:29.378Z,9.40
2018-05-10T08:38:57.238Z,9.60
2018-05-10T08:41:25.085Z,10.90
2018-05-10T08:43:52.992Z,7.97
2018-05-10T08:46:21.555Z,6.93
2018-05-10T08:48:50.455Z,8.43
2018-05-10T08:51:18.225Z,5.67
2018-05-10T08:53:45.922Z,5.20
2018-05-10T08:56:13.899Z,11.17
2018-05-10T08:58:41.701Z,5.73
2018-05-10T09:01:09.626Z,5.03
2018-05-10T09:03:37.273Z,7.83
2018-05-10T09:06:04.949Z,5.87
2018-05-10T09:08:32.578Z,6.67
2018-05-10T09:11:00.316Z,8.20
2018-05-10T09:13:27.957Z,5.53
2018-05-10T09:15:55.625Z,10.50
2018-05-10T09:18:23.287Z,8.30
2018-05-10T09:20:51.156Z,10.00
2018-05-10T09:23:18.812Z,6.80
2018-05-10T09:25:46.449Z,5.83
2018-05-10T09:28:14.101Z,4.97
2018-05-10T09:30:41.735Z,6.30
2018-05-10T09:33:09.384Z,6.07
2018-05-10T09:35:37.071Z,5.30
2018-05-10T09:38:04.779Z,5.10
2018-05-10T09:40:32.475Z,3.53
2018-05-10T09:43:00.116Z,4.43
2018-05-10T09:45:27.732Z,7.13
2018-05-10T09:47:55.384Z,5.07
2018-05-10T09:50:23.009Z,6.47
2018-05-10T09:52:50.642Z,5.53
2018-05-10T09:55:18.241Z,4.67
2018-05-10T09:57:45.923Z,4.23
2018-05-10T10:00:18.966Z,5.43
2018-05-10T10:02:46.645Z,7.23
2018-05-10T10:05:14.312Z,5.90
2018-05-10T10:07:42.029Z,6.27
2018-05-10T10:10:09.665Z,6.67
2018-05-10T10:12:37.285Z,4.37
2018-05-10T10:15:05.247Z,13.97
2018-05-10T10:17:33.219Z,10.20
2018-05-10T10:20:00.863Z,4.77
2018-05-10T10:22:28.466Z,5.47
2018-05-10T10:24:56.189Z,4.67
2018-05-10T10:27:23.828Z,5.80
2018-05-10T10:29:51.498Z,9.60
2018-05-10T10:32:19.353Z,6.80
2018-05-10T10:34:47.215Z,4.63
2018-05-10T10:37:14.818Z,3.30
2018-05-10T10:39:42.551Z,5.43
2018-05-10T10:42:10.339Z,8.17
2018-05-10T10:44:38.218Z,6.23
2018-05-10T10:47:05.901Z,6.27
2018-05-10T10:49:33.733Z,9.73
2018-05-10T10:52:01.526Z,8.63
2018-05-10T10:54:29.374Z,10.20
2018-05-10T10:56:57.206Z,13.30
2018-05-10T10:59:24.919Z,11.20
2018-05-10T11:01:53.611Z,11.23
2018-05-10T11:04:21.248Z,11.70
2018-05-10T11:06:49.139Z,13.60
2018-05-10T11:09:16.816Z,11.73
2018-05-10T11:11:44.495Z,11.77
2018-05-10T11:14:12.153Z,17.13
2018-05-10T11:16:39.844Z,11.93
2018-05-10T11:19:07.609Z,11.87
2018-05-10T11:21:35.316Z,16.37
2018-05-10T11:24:03.208Z,14.80
2018-05-10T11:26:31.302Z,25.03
2018-05-10T11:29:00.833Z,19.33
2018-05-10T11:31:28.588Z,17.63
2018-05-10T11:33:56.514Z,12.80
2018-05-10T11:36:24.259Z,13.57
2018-05-10T11:38:52.021Z,14.67
2018-05-10T11:41:19.700Z,14.50
2018-05-10T11:43:47.546Z,19.23
2018-05-10T11:46:15.592Z,14.90
2018-05-10T11:48:43.772Z,17.37
2018-05-10T11:51:11.389Z,21.60
2018-05-10T11:53:39.428Z,18.67
2018-05-10T11:56:07.055Z,15.50
2018-05-10T11:58:34.726Z,16.63
2018-05-10T12:01:02.366Z,20.47
2018-05-10T12:03:30.071Z,15.70
2018-05-10T12:05:57.766Z,15.60
2018-05-10T12:08:25.655Z,15.70
2018-05-10T12:10:53.424Z,19.77
2018-05-10T12:13:21.093Z,16.93
2018-05-10T12:15:51.079Z,23.13
2018-05-10T12:18:19.456Z,20.40
2018-05-10T12:20:47.313Z,18.23
2018-05-10T12:23:16.219Z,18.47
2018-05-10T12:25:43.877Z,18.73
2018-05-10T12:28:11.624Z,19.67
2018-05-10T12:30:39.245Z,20.17
2018-05-10T12:33:07.232Z,17.50
2018-05-10T12:36:02.063Z,20.00
2018-05-10T12:38:29.857Z,19.37
2018-05-10T12:40:59.501Z,17.37
2018-05-10T12:43:27.582Z,19.07
2018-05-10T12:48:41.057Z,19.57
2018-05-10T12:51:08.994Z,19.07
2018-05-10T12:53:36.715Z,20.47
2018-05-10T12:56:04.517Z,22.43
2018-05-10T12:58:32.208Z,18.13
2018-05-10T13:01:01.135Z,19.00
2018-05-10T13:03:28.791Z,20.60
2018-05-10T13:05:56.606Z,20.27
2018-05-10T13:08:24.297Z,21.27
2018-05-10T13:10:52.022Z,20.50
2018-05-10T13:13:19.690Z,19.87
2018-05-10T13:15:47.539Z,19.37
2018-05-10T13:18:15.346Z,20.90
2018-05-10T13:20:43.004Z,21.17
2018-05-10T13:23:10.629Z,23.63
2018-05-10T13:25:38.323Z,21.40
2018-05-10T13:28:06.006Z,22.97
2018-05-10T13:30:33.666Z,22.63
2018-05-10T13:33:01.359Z,22.53
2018-05-10T13:35:29.060Z,20.63
2018-05-10T13:37:56.706Z,20.83
2018-05-10T13:40:24.350Z,22.00
2018-05-10T13:42:51.961Z,22.03
2018-05-10T13:45:19.732Z,23.60
2018-05-10T13:47:47.412Z,22.10
2018-05-10T13:50:15.101Z,22.57
2018-05-10T13:52:42.757Z,21.40
2018-05-10T13:55:10.377Z,22.87
2018-05-10T13:57:39.939Z,22.77
2018-05-10T14:00:07.644Z,23.77
2018-05-10T14:02:35.665Z,22.87
2018-05-10T14:05:03.340Z,23.37
2018-05-10T14:07:31.038Z,22.90
2018-05-10T14:10:00.390Z,24.43
2018-05-10T14:12:28.108Z,23.20
2018-05-10T14:14:55.788Z,24.97
2018-05-10T14:17:23.444Z,24.87
2018-05-10T14:19:51.353Z,23.77
2018-05-10T14:22:19.053Z,25.77
2018-05-10T14:24:46.684Z,22.60
2018-05-10T14:27:14.349Z,25.03
2018-05-10T14:29:42.069Z,22.60
2018-05-10T14:32:09.781Z,22.23
2018-05-10T14:34:37.410Z,22.03
2018-05-10T14:37:05.186Z,29.17
2018-05-10T14:39:33.027Z,22.93
2018-05-10T14:42:00.690Z,19.13
2018-05-10T14:44:28.470Z,18.40
2018-05-10T14:46:56.316Z,19.23
2018-05-10T14:49:24.017Z,16.77
2018-05-10T14:51:51.668Z,18.07
2018-05-10T14:54:19.343Z,16.50
2018-05-10T14:56:47.018Z,21.63
2018-05-10T14:59:14.688Z,12.60
2018-05-10T15:01:42.308Z,17.00
2018-05-10T15:04:10.032Z,17.00
2018-05-10T15:06:37.648Z,20.60
2018-05-10T15:09:05.449Z,13.17
2018-05-10T15:11:33.137Z,14.70
2018-05-10T15:14:00.790Z,13.77
2018-05-10T15:16:28.404Z,13.20
2018-05-10T15:18:56.175Z,17.60
2018-05-10T15:21:25.389Z,11.77
2018-05-10T15:23:53.192Z,12.17
2018-05-10T15:26:20.926Z,12.20
2018-05-10T15:28:50.250Z,15.37
2018-05-10T15:31:17.975Z,10.73
2018-05-10T15:33:45.606Z,13.10
2018-05-10T15:36:13.293Z,10.37
2018-05-10T15:38:40.951Z,10.33
2018-05-10T15:41:08.671Z,10.00
2018-05-10T15:43:37.282Z,10.10
2018-05-10T15:46:04.915Z,7.60
2018-05-10T15:48:32.594Z,9.07
2018-05-10T15:51:00.254Z,9.13
2018-05-10T15:53:27.958Z,11.87
2018-05-10T15:55:55.611Z,8.10
2018-05-10T15:58:23.233Z,7.40
2018-05-10T16:00:50.890Z,10.47
2018-05-10T16:03:18.570Z,7.43
2018-05-10T16:05:46.164Z,10.77
2018-05-10T16:08:13.807Z,6.23
2018-05-10T16:10:41.409Z,6.93
2018-05-10T16:13:09.065Z,13.97
2018-05-10T16:15:36.848Z,8.83
2018-05-10T16:18:04.481Z,7.90
2018-05-10T16:20:32.094Z,6.37
2018-05-10T16:22:59.753Z,7.77
2018-05-10T16:25:27.387Z,7.30
2018-05-10T16:27:55.068Z,7.63
2018-05-10T16:30:22.811Z,9.23
2018-05-10T16:32:50.579Z,8.93
2018-05-10T16:35:18.136Z,7.00
2018-05-10T16:37:45.788Z,8.10
2018-05-10T16:40:13.400Z,4.93
2018-05-10T16:42:41.130Z,8.00
2018-05-10T16:45:08.730Z,8.27
2018-05-10T16:47:36.570Z,4.80
2018-05-10T16:50:04.161Z,7.10
2018-05-10T16:52:32.070Z,8.27
2018-05-10T16:54:59.673Z,7.60
2018-05-10T16:57:27.296Z,5.47
2018-05-10T16:59:54.960Z,7.70
2018-05-10T17:02:23.067Z,5.30
2018-05-10T17:04:50.905Z,11.37
2018-05-10T17:07:18.785Z,9.50
2018-05-10T17:09:46.486Z,4.87
2018-05-10T17:12:14.085Z,4.83
2018-05-10T17:14:41.777Z,6.50
2018-05-10T17:17:09.406Z,9.27
2018-05-10T17:19:37.039Z,4.97
2018-05-10T17:22:04.799Z,6.47
2018-05-10T17:24:32.485Z,5.10
2018-05-10T17:27:00.097Z,5.80
2018-05-10T17:29:27.861Z,5.10
2018-05-10T17:31:55.493Z,10.47
2018-05-10T17:34:23.161Z,6.43
2018-05-10T17:36:50.829Z,8.23
2018-05-10T17:39:18.459Z,11.37
2018-05-10T17:41:46.199Z,15.00
2018-05-10T17:44:13.838Z,7.50
2018-05-10T17:46:41.496Z,6.13
2018-05-10T17:49:09.167Z,5.20
2018-05-10T17:51:36.865Z,3.30
2018-05-10T17:54:04.492Z,4.40
2018-05-10T17:56:32.143Z,4.60
2018-05-10T17:58:59.784Z,7.00
2018-05-10T18:01:27.560Z,4.83
2018-05-10T18:03:55.784Z,4.80
2018-05-10T18:06:23.490Z,5.77
2018-05-10T18:08:51.112Z,4.77
2018-05-10T18:11:18.794Z,4.57
2018-05-10T18:13:46.657Z,5.23
2018-05-10T18:16:14.238Z,4.80
2018-05-10T18:18:41.896Z,5.77
2018-05-10T18:21:09.608Z,4.03
2018-05-10T18:23:37.259Z,4.07
2018-05-10T18:26:04.866Z,4.70
2018-05-10T18:28:32.529Z,4.30
2018-05-10T18:31:00.148Z,9.33
2018-05-10T18:33:27.907Z,8.13
2018-05-10T18:35:55.534Z,4.47
2018-05-10T18:38:23.170Z,4.20
2018-05-10T18:40:50.838Z,3.43
2018-05-10T18:43:18.533Z,4.17
2018-05-10T18:45:46.199Z,5.63
2018-05-10T18:48:13.863Z,4.13
2018-05-10T18:50:41.657Z,4.20
2018-05-10T18:53:09.333Z,5.57
2018-05-10T18:55:36.967Z,4.20
2018-05-10T18:58:04.578Z,2.83
2018-05-10T19:00:32.253Z,3.70
2018-05-10T19:02:59.891Z,3.47
2018-05-10T19:05:27.536Z,4.53
2018-05-10T19:07:55.152Z,4.33
2018-05-10T19:10:22.830Z,5.33
2018-05-10T19:12:50.498Z,3.47
2018-05-10T19:15:18.282Z,3.00
2018-05-10T19:17:45.805Z,4.37
2018-05-10T19:20:13.553Z,3.47
2018-05-10T19:22:41.261Z,3.73
2018-05-10T19:25:08.953Z,5.47
2018-05-10T19:27:36.601Z,4.47
2018-05-10T19:30:04.493Z,4.23
2018-05-10T19:32:32.226Z,4.03
2018-05-10T19:34:59.833Z,3.27
2018-05-10T19:37:27.482Z,2.90
2018-05-10T19:39:55.146Z,4.80
2018-05-10T19:42:22.796Z,3.83
2018-05-10T19:44:50.423Z,5.73
2018-05-10T19:47:18.097Z,6.57
2018-05-10T19:49:45.747Z,6.97
2018-05-10T19:52:13.386Z,3.23
2018-05-10T19:54:41.009Z,2.67
2018-05-10T19:57:08.657Z,2.70
2018-05-10T19:59:36.321Z,2.70
2018-05-10T20:02:03.955Z,5.93
2018-05-10T20:04:31.633Z,4.00
2018-05-10T20:06:59.285Z,2.50
2018-05-10T20:09:26.897Z,3.23
2018-05-10T20:11:54.569Z,3.03
2018-05-10T20:14:22.246Z,6.00
2018-05-10T20:16:49.889Z,4.27
2018-05-10T20:19:17.582Z,2.90
2018-05-10T20:21:45.204Z,3.20
2018-05-10T20:24:12.977Z,3.93
2018-05-10T20:26:40.607Z,3.07
2018-05-10T20:29:08.277Z,4.70
2018-05-10T20:31:35.894Z,4.10
2018-05-10T20:34:03.526Z,5.03
2018-05-10T20:36:31.234Z,4.60
2018-05-10T20:38:58.957Z,5.67
2018-05-10T20:41:26.594Z,2.20
2018-05-10T20:43:54.262Z,5.00
2018-05-10T20:46:22.007Z,2.77
2018-05-10T20:48:49.638Z,3.30
2018-05-10T20:51:17.294Z,2.97
2018-05-10T20:53:45.008Z,6.80
2018-05-10T20:56:12.638Z,3.13
2018-05-10T20:58:40.286Z,2.50
2018-05-10T21:01:07.923Z,3.30
2018-05-10T21:03:35.719Z,2.70
2018-05-10T21:06:03.425Z,2.90
2018-05-10T21:08:31.387Z,4.30
2018-05-10T21:10:59.029Z,6.17
2018-05-10T21:13:26.670Z,3.80
2018-05-10T21:15:54.375Z,4.47
2018-05-10T21:18:22.131Z,4.80
2018-05-10T21:20:49.762Z,4.47
2018-05-10T21:23:17.431Z,4.40
2018-05-10T21:25:45.046Z,3.83
2018-05-10T21:28:12.693Z,3.70
2018-05-10T21:30:40.630Z,3.53
2018-05-10T21:33:08.427Z,4.30
2018-05-10T21:35:36.188Z,3.70
2018-05-10T21:38:04.006Z,5.07
2018-05-10T21:40:31.801Z,4.17
2018-05-10T21:42:59.471Z,4.70
2018-05-10T21:45:27.157Z,7.03
2018-05-10T21:47:54.769Z,4.13
2018-05-10T21:50:27.320Z,4.23
2018-05-10T21:52:54.993Z,4.87
2018-05-10T21:55:22.761Z,5.83
2018-05-10T21:57:50.411Z,3.87
2018-05-10T22:00:18.031Z,4.37
2018-05-10T22:02:45.734Z,5.73
2018-05-10T22:05:13.348Z,5.43
2018-05-10T22:07:41.001Z,7.57
2018-05-10T22:10:08.661Z,6.00
2018-05-10T22:12:36.605Z,6.50
2018-05-10T22:15:04.312Z,4.37
2018-05-10T22:17:32.019Z,4.43
2018-05-10T22:19:59.763Z,5.83
2018-05-10T22:22:27.450Z,5.13
2018-05-10T22:24:55.290Z,7.73
2018-05-10T22:27:23.088Z,5.67
2018-05-10T22:29:50.783Z,4.83
2018-05-10T22:32:18.555Z,4.50
2018-05-10T22:34:46.413Z,5.53
2018-05-10T22:37:14.006Z,6.53
2018-05-10T22:39:41.679Z,5.67
2018-05-10T22:42:09.295Z,5.67
2018-05-10T22:44:36.945Z,6.70
2018-05-10T22:47:04.561Z,6.97
2018-05-10T22:49:32.248Z,5.90
2018-05-10T22:51:59.868Z,9.43
2018-05-10T22:54:27.493Z,6.37
2018-05-10T22:56:55.100Z,7.23
2018-05-10T22:59:22.773Z,7.10
2018-05-10T23:01:50.390Z,6.23
2018-05-10T23:04:18.090Z,6.70
2018-05-10T23:06:45.808Z,8.00
2018-05-10T23:09:13.449Z,7.37
2018-05-10T23:11:41.067Z,8.63
2018-05-10T23:14:08.720Z,8.90
2018-05-10T23:16:36.341Z,6.83
2018-05-10T23:19:04.142Z,7.53
2018-05-10T23:21:31.918Z,9.90
2018-05-10T23:23:59.577Z,7.20
2018-05-10T23:26:27.339Z,7.63
2018-05-10T23:28:55.136Z,10.63
2018-05-10T23:31:23.024Z,8.93
2018-05-10T23:33:50.736Z,9.40
2018-05-10T23:36:18.525Z,9.47
2018-05-10T23:38:46.280Z,8.63
2018-05-10T23:41:14.053Z,11.50
2018-05-10T23:43:41.684Z,8.40
2018-05-10T23:46:09.318Z,9.07
2018-05-10T23:48:36.970Z,12.60
2018-05-10T23:51:04.597Z,10.80
2018-05-10T23:53:32.230Z,9.80
2018-05-10T23:55:59.928Z,11.93
2018-05-10T23:58:27.539Z,9.30
